Time,TemperatureF,DewpointF,PressureIn,WindDirection,WindDirectionDegrees,WindSpeedMPH,WindSpeedGustMPH,Humidity,HourlyPrecipIn,Conditions,Clouds,dailyrainin,SoftwareType,DateUTC
2013-02-21 01:22:00,35.0,14.0,-100.00,North,-999,-999.0,-999.0,40,-99.99,,,-99.99,,2013-02-21 09:22:00,
2013-02-21 01:31:00,35.0,14.0,-100.00,North,-999,-999.0,-999.0,40,-99.99,,,-99.99,,2013-02-21 09:31:00,
2013-02-21 01:41:00,35.0,14.0,-100.00,North,-999,-999.0,-999.0,40,-99.99,,,-99.99,,2013-02-21 09:41:00,
2013-02-21 01:51:00,35.0,14.0,-100.00,North,-999,-999.0,-999.0,40,-99.99,,,-99.99,,2013-02-21 09:51:00,
2013-02-21 03:21:00,-999.0,-99.9,-100.00,SSE,151,5.0,-999.0,-999,-99.99,,,-99.99,,2013-02-21 11:21:00,
2013-02-21 03:51:00,32.0,21.0,-100.00,North,-999,-999.0,-999.0,64,-99.99,,,-99.99,,2013-02-21 11:51:00,
2013-02-21 04:53:00,-999.0,-99.9,-100.00,SW,225,5.0,-999.0,-999,-99.99,,,-99.99,,2013-02-21 12:53:00,
2013-02-21 05:52:00,-999.0,-99.9,-100.00,SSE,151,2.0,-999.0,-999,-99.99,,,-99.99,,2013-02-21 13:52:00,
2013-02-21 06:11:00,-999.0,-99.9,-100.00,SE,135,6.0,-999.0,-999,-99.99,,,-99.99,,2013-02-21 14:11:00,
2013-02-21 07:42:00,-999.0,-99.9,-100.00,South,185,3.0,-999.0,-999,-99.99,,,-99.99,,2013-02-21 15:42:00,
2013-02-21 07:52:00,-999.0,-99.9,-100.00,South,185,3.0,-999.0,-999,-99.99,,,-99.99,,2013-02-21 15:52:00,
2013-02-21 08:02:00,-999.0,-99.9,-100.00,South,185,3.0,-999.0,-999,-99.99,,,-99.99,,2013-02-21 16:02:00,
2013-02-21 08:12:00,-999.0,-99.9,-100.00,South,185,3.0,-999.0,-999,-99.99,,,-99.99,,2013-02-21 16:12:00,
2013-02-21 09:01:00,33.0,14.0,-100.00,North,-999,-999.0,-999.0,45,-99.99,,,0.00,,2013-02-21 17:01:00,
2013-02-21 09:11:00,33.0,14.0,-100.00,North,-999,-999.0,-999.0,45,-99.99,,,0.00,,2013-02-21 17:11:00,
2013-02-21 09:21:00,33.0,14.0,-100.00,North,-999,-999.0,-999.0,45,-99.99,,,0.00,,2013-02-21 17:21:00,
2013-02-21 09:42:00,-999.0,-99.9,-100.00,SSW,196,4.0,-999.0,-999,-99.99,,,-99.99,,2013-02-21 17:42:00,
2013-02-21 09:52:00,-999.0,-99.9,-100.00,SSW,196,4.0,-999.0,-999,-99.99,,,-99.99,,2013-02-21 17:52:00,
2013-02-21 10:52:00,36.0,14.0,-100.00,North,-999,-999.0,-999.0,40,-99.99,,,-99.99,,2013-02-21 18:52:00,
2013-02-21 11:52:00,-999.0,-99.9,-100.00,East,95,5.0,-999.0,-999,-99.99,,,-99.99,,2013-02-21 19:52:00,
2013-02-21 12:01:00,-999.0,-99.9,-100.00,East,95,5.0,-999.0,-999,-99.99,,,-99.99,,2013-02-21 20:01:00,
2013-02-21 12:11:00,-999.0,-99.9,-100.00,East,95,5.0,-999.0,-999,-99.99,,,-99.99,,2013-02-21 20:11:00,
2013-02-21 12:22:00,-999.0,-99.9,-100.00,ENE,67,6.0,-999.0,-999,-99.99,,,-99.99,,2013-02-21 20:22:00,
2013-02-21 12:32:00,-999.0,-99.9,-100.00,ENE,67,6.0,-999.0,-999,-99.99,,,-99.99,,2013-02-21 20:32:00,
2013-02-21 12:42:00,-999.0,-99.9,-100.00,ENE,67,6.0,-999.0,-999,-99.99,,,-99.99,,2013-02-21 20:42:00,
2013-02-21 12:53:00,-999.0,-99.9,-100.00,ENE,67,6.0,-999.0,-999,-99.99,,,-99.99,,2013-02-21 20:53:00,
2013-02-21 13:42:00,-999.0,-99.9,-100.00,ENE,78,4.0,-999.0,-999,-99.99,,,-99.99,,2013-02-21 21:42:00,
2013-02-21 14:21:00,46.0,13.0,-100.00,North,-999,-999.0,-999.0,25,-99.99,,,-99.99,,2013-02-21 22:21:00,
2013-02-21 14:32:00,-999.0,-99.9,-100.00,South,185,3.0,-999.0,27,-99.99,,,-99.99,,2013-02-21 22:32:00,
2013-02-21 14:42:00,-999.0,-99.9,-100.00,South,185,3.0,-999.0,27,-99.99,,,-99.99,,2013-02-21 22:42:00,
2013-02-21 14:52:00,-999.0,-99.9,-100.00,South,185,3.0,-999.0,27,-99.99,,,-99.99,,2013-02-21 22:52:00,
2013-02-21 15:01:00,-999.0,-99.9,-100.00,South,185,3.0,-999.0,27,-99.99,,,-99.99,,2013-02-21 23:01:00,
2013-02-21 15:11:00,-999.0,-99.9,-100.00,SSE,157,4.0,-999.0,-999,-99.99,,,-99.99,,2013-02-21 23:11:00,
2013-02-21 15:22:00,-999.0,-99.9,-100.00,SSE,157,4.0,-999.0,-999,-99.99,,,-99.99,,2013-02-21 23:22:00,
2013-02-21 15:32:00,42.0,-99.9,-100.00,North,-999,-999.0,-999.0,-999,-99.99,,,-99.99,,2013-02-21 23:32:00,
2013-02-21 15:42:00,-999.0,-99.9,-100.00,ESE,118,5.0,-999.0,-999,-99.99,,,-99.99,,2013-02-21 23:42:00,
2013-02-21 15:53:00,-999.0,-99.9,-100.00,ESE,118,5.0,-999.0,-999,-99.99,,,-99.99,,2013-02-21 23:53:00,
2013-02-21 16:32:00,39.0,-99.9,-100.00,North,-999,-999.0,-999.0,-999,-99.99,,,-99.99,,2013-02-22 00:32:00,
2013-02-21 16:52:00,42.0,-99.9,-100.00,North,-999,-999.0,-999.0,-999,-99.99,,,-99.99,,2013-02-22 00:52:00,
2013-02-21 17:01:00,42.0,-99.9,-100.00,North,-999,-999.0,-999.0,-999,-99.99,,,-99.99,,2013-02-22 01:01:00,
2013-02-21 17:11:00,42.0,-99.9,-100.00,North,-999,-999.0,-999.0,-999,-99.99,,,-99.99,,2013-02-22 01:11:00,
2013-02-21 17:22:00,42.0,-99.9,-100.00,North,-999,-999.0,-999.0,-999,-99.99,,,-99.99,,2013-02-22 01:22:00,
2013-02-21 17:52:00,38.0,-99.9,-100.00,North,-999,-999.0,-999.0,-999,-99.99,,,-99.99,,2013-02-22 01:52:00,
2013-02-21 18:42:00,-999.0,-99.9,-100.00,South,174,2.0,-999.0,-999,-99.99,,,-99.99,,2013-02-22 02:42:00,
2013-02-21 18:52:00,-999.0,-99.9,-100.00,South,174,2.0,-999.0,-999,-99.99,,,-99.99,,2013-02-22 02:52:00,
2013-02-21 19:02:00,-999.0,-99.9,-100.00,South,174,2.0,-999.0,-999,-99.99,,,-99.99,,2013-02-22 03:02:00,
2013-02-21 19:11:00,-999.0,-99.9,-100.00,South,174,2.0,-999.0,-999,-99.99,,,-99.99,,2013-02-22 03:11:00,
2013-02-21 20:01:00,35.0,8.0,-100.00,North,-999,-999.0,-999.0,32,-99.99,,,-99.99,,2013-02-22 04:01:00,
2013-02-21 20:11:00,35.0,8.0,-100.00,North,-999,-999.0,-999.0,32,-99.99,,,-99.99,,2013-02-22 04:11:00,
2013-02-21 20:21:00,35.0,8.0,-100.00,North,-999,-999.0,-999.0,32,-99.99,,,-99.99,,2013-02-22 04:21:00,
2013-02-21 20:32:00,35.0,8.0,-100.00,North,-999,-999.0,-999.0,32,-99.99,,,-99.99,,2013-02-22 04:32:00,
2013-02-21 20:42:00,-999.0,-99.9,-100.00,NW,326,1.0,-999.0,-999,-99.99,,,-99.99,,2013-02-22 04:42:00,
2013-02-21 20:52:00,-999.0,-99.9,-100.00,NW,326,1.0,-999.0,-999,-99.99,,,-99.99,,2013-02-22 04:52:00,
2013-02-21 21:01:00,36.0,5.0,-100.00,North,-999,-999.0,-999.0,26,-99.99,,,0.00,,2013-02-22 05:01:00,
2013-02-21 21:11:00,36.0,5.0,-100.00,North,-999,-999.0,-999.0,26,-99.99,,,0.00,,2013-02-22 05:11:00,
2013-02-21 21:21:00,36.0,5.0,-100.00,North,-999,-999.0,-999.0,26,-99.99,,,0.00,,2013-02-22 05:21:00,
2013-02-21 22:02:00,-999.0,-99.9,-100.00,North,354,8.0,-999.0,-999,-99.99,,,-99.99,,2013-02-22 06:02:00,
2013-02-21 22:12:00,-999.0,-99.9,-100.00,NNW,337,9.0,-999.0,-999,-99.99,,,-99.99,,2013-02-22 06:12:00,
2013-02-21 22:22:00,-999.0,-99.9,-100.00,NNW,337,9.0,-999.0,-999,-99.99,,,-99.99,,2013-02-22 06:22:00,
2013-02-21 22:32:00,-999.0,-99.9,-100.00,North,5,9.0,-999.0,-999,-99.99,,,-99.99,,2013-02-22 06:32:00,
2013-02-21 22:42:00,-999.0,-99.9,-100.00,NNW,337,9.0,-999.0,-999,-99.99,,,-99.99,,2013-02-22 06:42:00,
2013-02-21 22:52:00,-999.0,-99.9,-100.00,NNW,337,9.0,-999.0,-999,-99.99,,,-99.99,,2013-02-22 06:52:00,
2013-02-21 23:01:00,-999.0,-99.9,-100.00,North,354,10.0,-999.0,-999,-99.99,,,-99.99,,2013-02-22 07:01:00,
2013-02-21 23:11:00,-999.0,-99.9,-100.00,North,11,10.0,-999.0,-999,-99.99,,,-99.99,,2013-02-22 07:11:00,
2013-02-21 23:32:00,-999.0,-99.9,-100.00,North,0,11.0,-999.0,-999,-99.99,,,-99.99,,2013-02-22 07:32:00,
2013-02-21 23:42:00,-999.0,-99.9,-100.00,NNW,343,9.0,-999.0,-999,-99.99,,,-99.99,,2013-02-22 07:42:00,
2013-02-21 23:52:00,-999.0,-99.9,-100.00,NNW,343,9.0,-999.0,-999,-99.99,,,-99.99,,2013-02-22 07:52:00,